Terminal Aerodrome Forecast
Issued by NWS Bismarck, ND

Home | Current Version | Previous Version | Text Only | Print | Product List | Glossary Off
Versions: 1 2 3 4 5 6 7 8 9 10 11 12 13 14 15 16 17 18 19 20

000
FTUS43 KBIS 282236 AAC
TAFISN
TAF AMD
KISN 282236Z 2823/2918 27005KT P6SM VCSH BKN040 OVC060
     FM290000 28007KT P6SM SCT040 BKN080
     FM290300 25005KT P6SM FEW250=

USA.gov is the U.S. government's official web portal to all federal, state and local government web resources and services.